Time;durP1;ratioP1;P1;durP2;ratioP2;P2;SDS_P1;SDS_P2;PMS_P1;PMS_P2;Temp;Humidity;BMP_temperature;BMP_pressure;BME280_temperature;BME280_humidity;BME280_pressure;Samples;Min_cycle;Max_cycle;Signal;HPM_P1;HPM_P2
2021/03/12 00:02:17;;;;;;;17.95;1.45;;;6.50;99.90;;;;;;5028725;28;20047;-85
2021/03/12 00:04:43;;;;;;;9.65;0.50;;;6.50;99.90;;;;;;5046673;28;20045;-88
2021/03/12 00:07:09;;;;;;;13.65;0.73;;;6.70;99.90;;;;;;5036809;23;20010;-85
2021/03/12 00:09:35;;;;;;;18.80;0.95;;;6.60;99.90;;;;;;5030341;28;20084;-86
2021/03/12 00:12:01;;;;;;;5.35;0.43;;;6.60;99.90;;;;;;5048333;28;20035;-86
2021/03/12 00:14:27;;;;;;;12.10;0.70;;;6.60;99.90;;;;;;5032131;28;20029;-88
2021/03/12 00:16:52;;;;;;;10.07;0.50;;;6.60;99.90;;;;;;5048365;28;20119;-87
2021/03/12 00:19:18;;;;;;;9.55;1.25;;;6.60;99.90;;;;;;5032439;28;20030;-89
2021/03/12 00:21:44;;;;;;;10.98;0.70;;;6.70;99.90;;;;;;5031826;28;20072;-86
2021/03/12 00:24:10;;;;;;;8.00;0.80;;;6.60;99.90;;;;;;5032179;28;20036;-86
2021/03/12 00:26:36;;;;;;;13.30;2.15;;;6.60;99.90;;;;;;5031921;28;20046;-86
2021/03/12 00:29:03;;;;;;;12.60;0.75;;;6.70;99.90;;;;;;5031753;28;20033;-86
2021/03/12 00:31:29;;;;;;;9.88;0.57;;;6.70;99.90;;;;;;5031622;28;20052;-84
2021/03/12 00:33:54;;;;;;;11.80;1.23;;;6.60;99.90;;;;;;5031947;28;20025;-86
2021/03/12 00:36:20;;;;;;;12.20;0.50;;;6.70;99.90;;;;;;5048268;28;20112;-87
2021/03/12 00:38:46;;;;;;;11.07;0.60;;;6.60;99.90;;;;;;5032063;28;20025;-85
2021/03/12 00:41:12;;;;;;;5.43;0.70;;;6.60;99.90;;;;;;5031945;28;20048;-86
2021/03/12 00:43:48;;;;;;;13.90;1.08;;;6.60;99.90;;;;;;5033514;28;20132;-87
2021/03/12 00:46:23;;;;;;;14.43;0.65;;;6.70;99.90;;;;;;5047861;28;20025;-88
2021/03/12 00:48:49;;;;;;;11.95;0.50;;;6.60;99.90;;;;;;5031691;28;20086;-87
2021/03/12 00:51:15;;;;;;;8.63;0.57;;;6.70;99.90;;;;;;5031329;28;20086;-85
2021/03/12 00:53:57;;;;;;;8.35;0.98;;;6.70;99.90;;;;;;5048211;28;20457;-86
2021/03/12 00:56:23;;;;;;;9.35;1.05;;;6.70;99.90;;;;;;5047742;28;20537;-87
2021/03/12 00:58:50;;;;;;;9.60;1.00;;;6.60;99.90;;;;;;5047982;28;20037;-88
2021/03/12 01:01:17;;;;;;;11.55;0.85;;;6.60;99.90;;;;;;5047641;28;20431;-88
2021/03/12 01:03:44;;;;;;;11.05;0.57;;;6.60;99.90;;;;;;5047887;28;20032;-83
2021/03/12 01:06:34;;;;;;;6.07;0.52;;;6.60;99.90;;;;;;5047651;28;20443;-86
2021/03/12 01:09:03;;;;;;;4.60;0.40;;;6.60;99.90;;;;;;5047175;22;20076;-85
2021/03/12 01:11:32;;;;;;;8.05;0.70;;;6.50;99.90;;;;;;5031754;28;20588;-87
2021/03/12 01:13:58;;;;;;;6.93;0.50;;;6.50;99.90;;;;;;5048029;28;20033;-85
2021/03/12 01:16:31;;;;;;;7.45;0.68;;;6.60;99.90;;;;;;5049120;28;20047;-87
2021/03/12 01:18:59;;;;;;;4.50;0.50;;;6.50;99.90;;;;;;5047948;28;20032;-86
2021/03/12 01:21:29;;;;;;;5.25;0.52;;;6.50;99.90;;;;;;5031819;28;20036;-87
2021/03/12 01:23:57;;;;;;;11.10;0.63;;;6.50;99.90;;;;;;5031766;28;20037;-85
2021/03/12 01:26:24;;;;;;;6.45;0.57;;;6.50;99.90;;;;;;5047735;28;20025;-85
2021/03/12 01:29:01;;;;;;;7.13;0.80;;;6.50;99.90;;;;;;5047879;28;20039;-86
2021/03/12 01:31:41;;;;;;;7.50;0.65;;;6.60;99.90;;;;;;5032973;28;20025;-85
2021/03/12 01:34:12;;;;;;;6.82;0.50;;;6.50;99.90;;;;;;5032052;28;20036;-84
2021/03/12 01:36:39;;;;;;;7.22;0.50;;;6.50;99.90;;;;;;5031451;28;20203;-87
2021/03/12 01:39:07;;;;;;;5.78;0.73;;;6.50;99.90;;;;;;5031626;28;20025;-84
2021/03/12 01:41:33;;;;;;;8.80;0.68;;;6.40;99.90;;;;;;5032404;28;20029;-87
2021/03/12 01:44:04;;;;;;;8.65;1.67;;;6.50;99.90;;;;;;5035681;28;20025;-84
2021/03/12 01:46:32;;;;;;;11.15;0.70;;;6.50;99.90;;;;;;5034943;28;20056;-85
2021/03/12 01:48:58;;;;;;;8.38;0.70;;;6.40;99.90;;;;;;5050912;28;20071;-85
2021/03/12 01:51:24;;;;;;;6.13;0.70;;;6.50;99.90;;;;;;5018490;28;20026;-85
2021/03/12 01:53:50;;;;;;;11.02;0.60;;;6.50;99.90;;;;;;5014753;28;20425;-83
2021/03/12 01:56:16;;;;;;;4.53;0.63;;;6.50;99.90;;;;;;5014684;28;20030;-86
2021/03/12 01:58:50;;;;;;;16.42;1.15;;;6.50;99.90;;;;;;5015929;28;20033;-85
2021/03/12 02:01:32;;;;;;;6.05;0.60;;;6.50;99.90;;;;;;5016264;28;20089;-86
2021/03/12 02:04:02;;;;;;;10.18;0.60;;;6.40;99.90;;;;;;5014912;28;20036;-84
2021/03/12 02:09:46;;;;;;;14.68;0.77;;;6.40;99.90;;;;;;5007912;28;20056;-85
2021/03/12 02:12:18;;;;;;;7.47;1.45;;;6.30;99.90;;;;;;4991888;28;20037;-85
2021/03/12 02:15:08;;;;;;;13.52;0.80;;;6.30;99.90;;;;;;4991881;28;20030;-84
2021/03/12 02:18:00;;;;;;;10.90;0.60;;;6.30;99.90;;;;;;4987943;28;20058;-86
2021/03/12 02:21:20;;;;;;;10.63;0.93;;;6.30;99.90;;;;;;4987635;28;20023;-87
2021/03/12 02:23:52;;;;;;;9.82;0.70;;;6.30;99.90;;;;;;4961804;29;20111;-84
2021/03/12 02:26:37;;;;;;;9.35;0.77;;;6.20;99.90;;;;;;4948584;29;20060;-84
2021/03/12 02:29:15;;;;;;;8.65;0.70;;;6.20;99.90;;;;;;4964631;29;20036;-85
2021/03/12 02:31:42;;;;;;;12.05;1.25;;;6.20;99.90;;;;;;4948509;29;20059;-84
2021/03/12 02:34:13;;;;;;;10.70;0.80;;;6.20;99.90;;;;;;4967410;28;20043;-85
2021/03/12 02:36:47;;;;;;;13.57;0.80;;;6.20;99.90;;;;;;4951478;29;20034;-84
2021/03/12 02:39:16;;;;;;;11.82;1.23;;;6.20;99.90;;;;;;4967721;29;20054;-85
2021/03/12 02:41:44;;;;;;;11.18;0.80;;;6.20;99.90;;;;;;4951722;29;20038;-87
2021/03/12 02:44:15;;;;;;;8.70;0.90;;;6.30;99.90;;;;;;4936315;29;20137;-85
2021/03/12 02:46:55;;;;;;;13.15;1.10;;;6.30;99.90;;;;;;4952764;29;20424;-84
2021/03/12 02:49:21;;;;;;;10.13;0.95;;;6.30;99.90;;;;;;4951136;29;20038;-84
2021/03/12 02:51:48;;;;;;;8.07;0.98;;;6.20;99.90;;;;;;4950545;28;20322;-86
2021/03/12 02:54:15;;;;;;;7.95;1.02;;;6.20;99.90;;;;;;4935288;29;20058;-85
2021/03/12 02:56:43;;;;;;;9.43;0.88;;;6.20;99.90;;;;;;4935453;29;20473;-84
2021/03/12 02:59:12;;;;;;;10.10;0.93;;;6.10;99.90;;;;;;4969067;28;20125;-84
2021/03/12 03:02:04;;;;;;;11.88;1.25;;;6.10;99.90;;;;;;4984855;28;20081;-84
2021/03/12 03:04:51;;;;;;;13.20;0.60;;;6.00;99.90;;;;;;5006521;28;20113;-84
2021/03/12 03:07:41;;;;;;;13.40;0.70;;;6.00;99.90;;;;;;5005508;28;20030;-85
2021/03/12 03:10:22;;;;;;;11.43;0.50;;;6.10;99.90;;;;;;5054908;22;20117;-87
2021/03/12 03:13:04;;;;;;;9.65;0.90;;;6.20;99.90;;;;;;5013595;28;20039;-85
2021/03/12 03:15:33;;;;;;;9.00;0.70;;;6.10;99.90;;;;;;5046410;28;20060;-85
2021/03/12 03:18:03;;;;;;;8.23;0.60;;;6.10;99.90;;;;;;5013731;28;20030;-85
2021/03/12 03:20:38;;;;;;;7.57;0.40;;;6.10;99.90;;;;;;5030616;28;20045;-84
2021/03/12 03:23:04;;;;;;;7.43;0.50;;;6.10;99.90;;;;;;5029633;28;20088;-85
2021/03/12 03:25:29;;;;;;;10.10;0.82;;;6.10;99.90;;;;;;5029908;28;20029;-86
2021/03/12 03:27:55;;;;;;;7.38;0.30;;;6.10;99.90;;;;;;5029591;28;20044;-85
2021/03/12 03:30:22;;;;;;;10.95;1.52;;;6.10;99.90;;;;;;5029470;28;20117;-84
2021/03/12 03:32:58;;;;;;;9.32;0.68;;;6.00;99.90;;;;;;5046383;28;20034;-84
2021/03/12 03:35:26;;;;;;;10.27;0.90;;;6.00;99.90;;;;;;5045910;28;20057;-84
2021/03/12 03:37:52;;;;;;;9.00;0.75;;;6.00;99.90;;;;;;5045878;28;20040;-85
2021/03/12 03:40:18;;;;;;;5.72;0.43;;;6.00;99.90;;;;;;5029137;28;20025;-86
2021/03/12 03:42:46;;;;;;;10.32;0.50;;;6.00;99.90;;;;;;5029176;28;20045;-85
2021/03/12 03:45:14;;;;;;;9.45;0.60;;;5.90;99.90;;;;;;5029148;28;20032;-85
2021/03/12 03:47:45;;;;;;;11.07;0.82;;;5.90;99.90;;;;;;5045669;28;20037;-86
2021/03/12 03:50:14;;;;;;;9.68;0.68;;;5.90;99.90;;;;;;5026051;28;20030;-83
2021/03/12 03:52:41;;;;;;;11.75;0.80;;;5.90;99.90;;;;;;5012237;28;20080;-85
2021/03/12 03:55:11;;;;;;;7.60;1.20;;;5.80;99.90;;;;;;5013182;28;20029;-84
2021/03/12 03:57:38;;;;;;;11.15;0.75;;;5.70;99.90;;;;;;5012320;28;20025;-85
2021/03/12 04:00:06;;;;;;;9.45;0.50;;;5.80;99.90;;;;;;5012218;28;20034;-84
2021/03/12 04:02:42;;;;;;;8.45;0.75;;;5.80;99.90;;;;;;5030132;28;20041;-84
2021/03/12 04:05:10;;;;;;;10.77;0.70;;;5.80;99.90;;;;;;5011503;28;20400;-84
2021/03/12 04:07:41;;;;;;;13.95;1.13;;;5.70;99.90;;;;;;5027538;23;20051;-83
2021/03/12 04:10:08;;;;;;;8.55;0.63;;;5.70;99.90;;;;;;5032002;28;20039;-84
2021/03/12 04:12:36;;;;;;;10.07;0.73;;;5.80;99.90;;;;;;5048456;28;20024;-88
2021/03/12 04:15:04;;;;;;;9.10;0.50;;;5.80;99.90;;;;;;5032163;28;20080;-84
2021/03/12 04:17:32;;;;;;;4.05;0.40;;;5.80;99.90;;;;;;5032104;28;20032;-84
2021/03/12 04:20:00;;;;;;;14.13;0.75;;;5.70;99.90;;;;;;5032033;28;20025;-86
2021/03/12 04:22:26;;;;;;;6.72;0.40;;;5.60;99.90;;;;;;5066162;28;20029;-85
2021/03/12 04:24:53;;;;;;;9.68;0.40;;;5.50;99.90;;;;;;5032059;28;20497;-85
2021/03/12 04:27:23;;;;;;;14.18;0.63;;;5.40;99.90;;;;;;5031779;28;20108;-85
2021/03/12 04:29:49;;;;;;;9.50;0.45;;;5.40;99.90;;;;;;5031575;28;20074;-85
2021/03/12 04:32:15;;;;;;;7.38;0.40;;;5.40;99.90;;;;;;5031770;28;20031;-85
2021/03/12 04:34:43;;;;;;;17.08;0.85;;;5.30;99.90;;;;;;5031368;28;20037;-84
2021/03/12 04:37:29;;;;;;;10.75;1.58;;;5.20;99.90;;;;;;5031665;28;20036;-84
2021/03/12 04:39:56;;;;;;;11.82;0.50;;;5.20;99.90;;;;;;5031320;28;20048;-86
2021/03/12 04:42:24;;;;;;;6.88;0.40;;;5.20;99.90;;;;;;5031695;28;20043;-84
2021/03/12 04:44:50;;;;;;;6.82;0.45;;;5.20;99.90;;;;;;5031749;28;20032;-84
2021/03/12 04:47:17;;;;;;;7.05;0.70;;;5.20;99.90;;;;;;5031420;28;20025;-84
2021/03/12 04:49:45;;;;;;;7.35;0.60;;;5.10;99.90;;;;;;5028595;28;20116;-84
2021/03/12 04:52:18;;;;;;;8.90;0.60;;;5.20;99.90;;;;;;5028092;28;20088;-84
2021/03/12 04:54:47;;;;;;;9.68;0.70;;;5.20;99.90;;;;;;5027999;28;20025;-83
2021/03/12 04:57:15;;;;;;;7.90;0.30;;;5.10;99.90;;;;;;5028229;28;20057;-84
2021/03/12 04:59:42;;;;;;;6.78;0.40;;;5.00;99.90;;;;;;5028042;28;20555;-85
2021/03/12 05:02:08;;;;;;;3.83;0.30;;;5.00;99.90;;;;;;5044262;28;20064;-84
2021/03/12 05:04:34;;;;;;;7.00;0.30;;;4.80;99.90;;;;;;5028196;28;20034;-85
2021/03/12 05:07:01;;;;;;;5.43;0.30;;;4.70;99.90;;;;;;5027330;28;20030;-84
2021/03/12 05:09:44;;;;;;;5.03;0.40;;;4.80;99.90;;;;;;5048854;23;20113;-85
2021/03/12 05:12:15;;;;;;;6.70;0.32;;;4.80;99.90;;;;;;5012535;28;20051;-84
2021/03/12 05:14:42;;;;;;;6.65;1.75;;;4.80;99.90;;;;;;5011873;28;20037;-83
2021/03/12 05:17:08;;;;;;;6.40;0.70;;;4.70;99.90;;;;;;5015339;28;20159;-85
2021/03/12 05:19:34;;;;;;;14.70;0.60;;;4.70;99.90;;;;;;5015457;28;20030;-84
2021/03/12 05:22:00;;;;;;;5.65;0.50;;;4.60;99.90;;;;;;5015574;28;20080;-84
2021/03/12 05:24:28;;;;;;;7.88;0.40;;;4.60;99.90;;;;;;5015551;28;20084;-84
2021/03/12 05:26:54;;;;;;;5.85;0.50;;;4.70;99.90;;;;;;5031889;28;20025;-83
2021/03/12 05:29:25;;;;;;;2.63;0.40;;;4.60;99.90;;;;;;5032572;28;20040;-84
2021/03/12 05:31:58;;;;;;;5.40;0.50;;;4.60;99.90;;;;;;5015974;28;20517;-83
2021/03/12 05:34:25;;;;;;;8.98;0.50;;;4.50;99.90;;;;;;5015037;28;20025;-83
2021/03/12 05:36:50;;;;;;;6.80;1.17;;;4.50;99.90;;;;;;5014914;28;20025;-84
2021/03/12 05:39:21;;;;;;;6.85;1.08;;;4.40;99.90;;;;;;5015252;28;20119;-83
2021/03/12 05:41:49;;;;;;;7.28;0.60;;;4.50;99.90;;;;;;5015196;28;20120;-83
2021/03/12 05:44:17;;;;;;;10.93;0.70;;;4.50;99.90;;;;;;5015387;28;20040;-84
2021/03/12 05:46:45;;;;;;;5.30;0.30;;;4.50;99.90;;;;;;5031141;28;20026;-83
2021/03/12 05:49:14;;;;;;;6.53;0.70;;;4.50;99.90;;;;;;5015271;28;20091;-83
2021/03/12 05:51:41;;;;;;;7.35;0.40;;;4.40;99.90;;;;;;5030796;28;20084;-84
2021/03/12 05:54:07;;;;;;;12.65;0.63;;;4.40;99.90;;;;;;5014432;28;20111;-83
2021/03/12 05:56:35;;;;;;;11.90;0.80;;;4.40;99.90;;;;;;5014824;28;20030;-83
2021/03/12 05:59:03;;;;;;;4.85;0.50;;;4.40;99.90;;;;;;5014550;28;20036;-84
2021/03/12 06:01:32;;;;;;;8.85;0.68;;;4.50;99.90;;;;;;5013467;28;20025;-83
2021/03/12 06:03:58;;;;;;;6.55;0.40;;;4.50;99.90;;;;;;5013499;28;20033;-82
2021/03/12 06:06:27;;;;;;;7.85;0.93;;;4.40;99.90;;;;;;5014322;28;20036;-83
2021/03/12 06:08:57;;;;;;;9.38;0.88;;;4.40;99.90;;;;;;5002952;23;20061;-84
2021/03/12 06:11:23;;;;;;;5.15;0.73;;;4.40;99.90;;;;;;5000316;28;20039;-82
2021/03/12 06:13:54;;;;;;;8.70;0.63;;;4.40;99.90;;;;;;5006041;28;20046;-82
2021/03/12 06:16:31;;;;;;;10.52;0.50;;;4.40;99.90;;;;;;4976172;28;20027;-83
2021/03/12 06:19:18;;;;;;;9.30;0.60;;;4.40;99.90;;;;;;4990570;28;20031;-83
2021/03/12 06:21:48;;;;;;;9.82;0.57;;;4.40;99.90;;;;;;5006279;28;20069;-84
2021/03/12 06:24:28;;;;;;;9.15;1.20;;;4.40;99.90;;;;;;4976641;28;20041;-83
2021/03/12 06:27:29;;;;;;;6.55;0.80;;;4.50;99.90;;;;;;5003643;28;20034;-83
2021/03/12 06:30:11;;;;;;;11.13;0.77;;;4.40;99.90;;;;;;5006882;28;20041;-84
2021/03/12 06:32:51;;;;;;;6.57;0.93;;;4.50;99.90;;;;;;4990660;28;20118;-83
2021/03/12 06:35:38;;;;;;;3.25;0.47;;;4.50;99.90;;;;;;4990237;28;20034;-83
2021/03/12 06:38:19;;;;;;;5.47;0.70;;;4.50;99.90;;;;;;5006564;28;20098;-83
2021/03/12 06:41:03;;;;;;;6.78;0.70;;;4.50;99.90;;;;;;5006890;28;20122;-83
2021/03/12 06:43:47;;;;;;;9.32;0.70;;;4.60;99.90;;;;;;4990269;28;20101;-83
2021/03/12 06:46:13;;;;;;;8.95;0.82;;;4.60;99.90;;;;;;4990215;28;20034;-85
2021/03/12 06:49:01;;;;;;;8.48;1.15;;;4.60;99.90;;;;;;5006272;28;20026;-84
2021/03/12 06:51:35;;;;;;;8.05;0.70;;;4.60;99.90;;;;;;4993589;28;20054;-84
2021/03/12 06:54:07;;;;;;;14.32;0.80;;;4.60;99.90;;;;;;5005501;28;20031;-84
2021/03/12 06:56:40;;;;;;;8.48;0.60;;;4.70;99.90;;;;;;5005106;28;20022;-83
2021/03/12 06:59:31;;;;;;;5.68;0.60;;;4.70;99.90;;;;;;5004727;28;20027;-83
2021/03/12 07:02:15;;;;;;;9.38;0.50;;;4.70;99.90;;;;;;5005552;28;20082;-84
2021/03/12 07:04:58;;;;;;;10.25;0.70;;;4.70;99.90;;;;;;4982597;28;20036;-84
2021/03/12 07:07:59;;;;;;;10.55;0.57;;;4.80;99.90;;;;;;4962022;23;20049;-83
2021/03/12 07:10:40;;;;;;;11.80;0.70;;;4.80;99.90;;;;;;5034388;28;20152;-83
2021/03/12 07:13:27;;;;;;;9.57;0.52;;;4.90;99.90;;;;;;5052608;28;20063;-83
2021/03/12 07:16:03;;;;;;;6.18;0.52;;;4.90;99.90;;;;;;5028895;28;20129;-82
2021/03/12 07:18:37;;;;;;;15.68;1.15;;;4.90;99.90;;;;;;5041790;28;20025;-84
2021/03/12 07:21:08;;;;;;;8.75;0.47;;;5.00;99.90;;;;;;5044673;28;20034;-83
2021/03/12 07:23:41;;;;;;;11.43;1.85;;;5.00;99.90;;;;;;5028667;28;20052;-83
2021/03/12 07:26:14;;;;;;;9.50;0.63;;;5.20;99.90;;;;;;5045503;28;20021;-83
2021/03/12 07:28:45;;;;;;;11.38;0.85;;;5.30;99.90;;;;;;5028869;28;20029;-83
2021/03/12 07:31:37;;;;;;;13.13;0.60;;;5.30;99.90;;;;;;5028660;28;20030;-81
2021/03/12 07:34:18;;;;;;;13.00;0.50;;;5.40;99.90;;;;;;5047074;28;20040;-82
2021/03/12 07:36:50;;;;;;;7.67;0.43;;;5.50;99.90;;;;;;5032100;28;20021;-82
2021/03/12 07:39:21;;;;;;;12.63;1.35;;;5.50;99.90;;;;;;5019934;28;20033;-84
2021/03/12 07:41:48;;;;;;;12.00;0.70;;;5.60;99.90;;;;;;5012140;28;20044;-84
2021/03/12 07:44:37;;;;;;;7.30;0.50;;;5.70;99.90;;;;;;5030045;28;20102;-84
2021/03/12 07:47:24;;;;;;;15.15;0.60;;;5.80;99.90;;;;;;5013211;28;20056;-83
2021/03/12 07:49:51;;;;;;;5.20;0.50;;;5.80;99.90;;;;;;5015009;28;20033;-84
2021/03/12 07:52:51;;;;;;;10.98;0.40;;;5.90;99.90;;;;;;5028048;28;20473;-84
2021/03/12 07:55:35;;;;;;;9.35;0.60;;;6.10;99.90;;;;;;5046012;28;20033;-84
2021/03/12 07:58:05;;;;;;;13.35;1.02;;;6.10;99.90;;;;;;5012136;28;20044;-84
2021/03/12 08:00:57;;;;;;;7.03;0.40;;;6.20;99.90;;;;;;5028153;28;20041;-85
2021/03/12 08:03:39;;;;;;;9.35;0.88;;;6.20;99.90;;;;;;5012478;28;20042;-84
2021/03/12 08:06:16;;;;;;;11.82;0.50;;;6.20;99.90;;;;;;5028073;28;20034;-84
2021/03/12 08:09:35;;;;;;;9.90;0.90;;;6.30;99.90;;;;;;5041630;23;20107;-84
2021/03/12 08:12:36;;;;;;;17.45;1.10;;;6.30;99.90;;;;;;5016001;28;20395;-85
2021/03/12 08:15:34;;;;;;;10.43;0.50;;;6.40;99.90;;;;;;5027419;28;20078;-84
2021/03/12 08:18:14;;;;;;;7.38;0.47;;;6.40;99.90;;;;;;5027742;28;20101;-84
2021/03/12 08:20:49;;;;;;;14.77;0.60;;;6.50;99.90;;;;;;5012729;28;20021;-84
2021/03/12 08:23:36;;;;;;;6.90;0.60;;;6.60;99.90;;;;;;5013135;28;20041;-84
2021/03/12 08:26:51;;;;;;;10.43;0.52;;;6.60;99.90;;;;;;5013049;28;20036;-84
2021/03/12 08:29:43;;;;;;;9.40;0.68;;;6.80;99.90;;;;;;5030919;28;20036;-83
2021/03/12 08:32:34;;;;;;;10.45;0.60;;;6.90;99.90;;;;;;5027533;28;20041;-84
2021/03/12 08:35:42;;;;;;;10.90;0.50;;;7.00;99.90;;;;;;5020979;28;20046;-86
2021/03/12 08:38:26;;;;;;;16.77;1.17;;;7.20;99.90;;;;;;5019006;28;20484;-83
2021/03/12 08:41:13;;;;;;;17.60;1.02;;;7.20;99.90;;;;;;5029694;28;20044;-84
2021/03/12 08:43:55;;;;;;;16.75;0.90;;;7.30;99.90;;;;;;5021931;28;20038;-85
2021/03/12 08:46:40;;;;;;;14.13;1.00;;;7.20;99.90;;;;;;5019855;28;20034;-84
2021/03/12 08:49:08;;;;;;;8.82;0.77;;;7.30;99.90;;;;;;5025177;28;20093;-83
2021/03/12 08:51:33;;;;;;;9.35;0.60;;;7.40;99.90;;;;;;5005889;28;20029;-84
2021/03/12 08:54:13;;;;;;;15.45;1.25;;;7.70;99.90;;;;;;5006132;28;20033;-84
2021/03/12 08:56:46;;;;;;;12.60;0.77;;;7.60;99.90;;;;;;5025366;28;20048;-84
2021/03/12 08:59:12;;;;;;;13.85;1.23;;;7.70;99.90;;;;;;5016205;28;20026;-84
2021/03/12 09:01:59;;;;;;;17.33;1.13;;;7.70;99.90;;;;;;5013664;28;20033;-85
2021/03/12 09:04:39;;;;;;;11.95;1.63;;;7.70;99.90;;;;;;5011188;28;20033;-85
2021/03/12 09:07:55;;;;;;;16.73;1.13;;;7.60;99.90;;;;;;5036805;23;20108;-84
2021/03/12 09:10:28;;;;;;;16.20;1.02;;;8.00;99.90;;;;;;5046366;28;20040;-84
2021/03/12 09:13:20;;;;;;;10.60;0.95;;;8.30;99.90;;;;;;5050509;28;20029;-84
2021/03/12 09:15:48;;;;;;;13.52;0.95;;;8.30;99.90;;;;;;5030568;28;20029;-85
2021/03/12 09:18:19;;;;;;;15.85;1.23;;;8.80;99.90;;;;;;5052893;28;20040;-86
2021/03/12 09:20:52;;;;;;;17.30;0.90;;;8.50;99.90;;;;;;5050354;28;20033;-85
2021/03/12 09:23:20;;;;;;;10.48;0.80;;;8.30;99.90;;;;;;5034209;28;20041;-87
2021/03/12 09:25:56;;;;;;;11.70;0.90;;;8.00;99.90;;;;;;5038347;28;20116;-85
2021/03/12 09:28:28;;;;;;;15.80;0.85;;;8.10;99.90;;;;;;5030252;28;20083;-86
2021/03/12 09:31:11;;;;;;;8.90;0.73;;;8.20;99.90;;;;;;5048810;28;20025;-86
2021/03/12 09:33:52;;;;;;;14.82;1.05;;;8.30;99.90;;;;;;5034369;28;20090;-86
2021/03/12 09:36:38;;;;;;;12.70;0.75;;;8.60;99.90;;;;;;5022824;28;20048;-85
2021/03/12 09:39:31;;;;;;;13.05;0.98;;;8.80;99.90;;;;;;5028390;28;20035;-86
2021/03/12 09:42:11;;;;;;;12.75;1.15;;;8.50;99.90;;;;;;5029894;28;20029;-85
2021/03/12 09:44:46;;;;;;;15.85;1.00;;;8.40;99.90;;;;;;5035335;28;20040;-86
2021/03/12 09:47:19;;;;;;;18.27;0.80;;;8.40;99.90;;;;;;5044815;28;20024;-86
2021/03/12 09:49:52;;;;;;;11.43;1.00;;;8.50;99.90;;;;;;5037285;28;20052;-86
2021/03/12 09:52:24;;;;;;;12.10;0.60;;;8.60;99.90;;;;;;5036065;28;20032;-85
2021/03/12 09:55:03;;;;;;;12.95;0.88;;;8.50;99.90;;;;;;5048526;28;20051;-86
2021/03/12 09:57:31;;;;;;;9.35;0.60;;;8.30;99.90;;;;;;5031847;28;20024;-85
2021/03/12 10:00:07;;;;;;;14.55;1.35;;;8.30;99.90;;;;;;5033418;28;20033;-86
2021/03/12 10:02:56;;;;;;;14.32;0.90;;;8.20;99.90;;;;;;5032725;28;20042;-86
2021/03/12 10:05:35;;;;;;;15.00;1.20;;;8.30;99.90;;;;;;5030764;28;20037;-85
2021/03/12 10:08:09;;;;;;;11.18;0.75;;;8.40;99.90;;;;;;5032641;23;20520;-84
2021/03/12 10:11:01;;;;;;;12.10;1.17;;;8.70;99.90;;;;;;5032505;28;20044;-86
2021/03/12 10:13:31;;;;;;;10.90;1.13;;;8.80;99.90;;;;;;5033864;28;20029;-86
2021/03/12 10:16:13;;;;;;;10.88;0.73;;;8.70;99.90;;;;;;5013564;28;20124;-85
2021/03/12 10:18:59;;;;;;;8.48;0.85;;;8.60;99.90;;;;;;5012440;28;20056;-84
2021/03/12 10:21:25;;;;;;;13.30;0.95;;;8.50;99.90;;;;;;5029383;28;20542;-84
2021/03/12 10:23:51;;;;;;;15.55;0.95;;;8.60;99.90;;;;;;5012887;28;20092;-83
2021/03/12 10:26:16;;;;;;;12.85;0.93;;;8.70;99.90;;;;;;5031140;28;20062;-84
2021/03/12 10:28:47;;;;;;;6.70;0.52;;;9.00;99.90;;;;;;5014002;28;20091;-85
2021/03/12 10:31:13;;;;;;;12.00;1.00;;;9.00;99.90;;;;;;5020770;28;20029;-84
2021/03/12 10:33:48;;;;;;;13.93;1.02;;;8.80;99.90;;;;;;5049827;28;20033;-84
2021/03/12 10:36:17;;;;;;;9.85;0.70;;;8.60;99.90;;;;;;5013298;28;20069;-84
2021/03/12 10:38:46;;;;;;;10.65;0.80;;;8.50;99.90;;;;;;5013860;28;20033;-84
2021/03/12 10:41:20;;;;;;;17.02;0.88;;;8.40;99.90;;;;;;5007312;28;20049;-85
2021/03/12 10:44:06;;;;;;;13.27;0.60;;;8.30;99.90;;;;;;5028767;28;20044;-84
2021/03/12 10:46:34;;;;;;;9.18;0.55;;;8.20;99.90;;;;;;5012870;28;20075;-84
2021/03/12 10:49:02;;;;;;;6.95;0.80;;;8.00;99.90;;;;;;5036529;28;20040;-84
2021/03/12 10:51:37;;;;;;;15.60;0.90;;;7.90;99.90;;;;;;5032222;28;20033;-85
2021/03/12 10:54:04;;;;;;;15.70;1.48;;;7.70;99.90;;;;;;5048717;28;20041;-85
2021/03/12 10:56:30;;;;;;;14.00;0.80;;;7.60;99.90;;;;;;5022584;28;20022;-85
2021/03/12 10:59:06;;;;;;;13.77;0.60;;;7.60;99.90;;;;;;5016424;28;20040;-85
2021/03/12 11:01:38;;;;;;;10.30;0.82;;;7.50;99.90;;;;;;5011854;28;20048;-85
2021/03/12 11:04:10;;;;;;;13.05;2.55;;;7.50;99.90;;;;;;5015960;28;20051;-84
2021/03/12 11:06:37;;;;;;;13.90;0.80;;;7.50;99.90;;;;;;5009486;28;20034;-85
2021/03/12 11:09:09;;;;;;;11.18;0.60;;;7.30;99.90;;;;;;5066145;22;20129;-86
2021/03/12 11:11:40;;;;;;;9.48;0.50;;;7.20;99.90;;;;;;5044217;28;20033;-84
2021/03/12 11:14:07;;;;;;;9.13;0.50;;;7.20;99.90;;;;;;5047674;28;20044;-85
2021/03/12 11:16:33;;;;;;;9.40;0.55;;;7.10;99.90;;;;;;5038732;28;20029;-85
2021/03/12 11:19:00;;;;;;;8.38;0.63;;;7.10;99.90;;;;;;5015249;28;20037;-87
2021/03/12 11:21:28;;;;;;;8.85;0.93;;;7.20;99.90;;;;;;5031175;28;20052;-85
2021/03/12 11:23:54;;;;;;;11.02;0.98;;;7.20;99.90;;;;;;5027282;28;20090;-84
2021/03/12 11:26:21;;;;;;;6.95;0.50;;;7.10;99.90;;;;;;5023225;28;20029;-85
2021/03/12 11:28:47;;;;;;;14.13;1.00;;;7.20;99.90;;;;;;5029668;28;20033;-84
2021/03/12 11:31:13;;;;;;;14.93;1.08;;;7.30;99.90;;;;;;5030999;28;20055;-86
2021/03/12 11:33:39;;;;;;;20.23;1.13;;;7.30;99.90;;;;;;5030485;28;20127;-86
2021/03/12 11:36:07;;;;;;;12.38;0.93;;;7.40;99.90;;;;;;5012462;28;20046;-86
2021/03/12 11:38:33;;;;;;;15.15;1.35;;;7.30;99.90;;;;;;5039227;28;20047;-85
2021/03/12 11:40:59;;;;;;;10.23;1.27;;;7.50;99.90;;;;;;5030650;28;20472;-85
2021/03/12 11:43:28;;;;;;;11.23;0.90;;;7.60;99.90;;;;;;5047461;28;20516;-85
2021/03/12 11:45:54;;;;;;;8.75;0.85;;;7.60;99.90;;;;;;5016441;28;20021;-86
2021/03/12 11:48:21;;;;;;;14.10;1.50;;;7.80;99.90;;;;;;5022514;28;20068;-87
2021/03/12 11:50:48;;;;;;;13.18;2.40;;;7.80;99.90;;;;;;5029989;28;20033;-86
2021/03/12 11:53:14;;;;;;;17.00;1.92;;;8.00;99.90;;;;;;5029831;28;20037;-86
2021/03/12 11:55:43;;;;;;;7.32;0.90;;;8.50;99.90;;;;;;5026814;28;20052;-85
2021/03/12 11:58:10;;;;;;;10.90;0.85;;;8.70;99.90;;;;;;5015292;28;20025;-86
2021/03/12 12:00:35;;;;;;;8.73;1.30;;;8.70;99.90;;;;;;5030345;28;20124;-85
2021/03/12 12:03:02;;;;;;;14.25;2.17;;;8.70;99.90;;;;;;5014861;28;20069;-85
2021/03/12 12:06:08;;;;;;;12.48;1.10;;;8.70;99.90;;;;;;5052500;28;20029;-86
2021/03/12 12:08:34;;;;;;;13.45;1.90;;;8.80;99.90;;;;;;5012582;23;20099;-87
2021/03/12 12:10:59;;;;;;;9.23;0.93;;;8.80;99.90;;;;;;5030260;28;20029;-87
2021/03/12 12:13:25;;;;;;;6.40;0.70;;;8.80;99.90;;;;;;5030179;28;20036;-86
2021/03/12 12:15:53;;;;;;;11.60;0.70;;;8.90;99.90;;;;;;5058080;28;20160;-86
2021/03/12 12:18:19;;;;;;;12.70;1.10;;;8.90;99.90;;;;;;5017623;28;20131;-85
2021/03/12 12:20:45;;;;;;;14.02;1.20;;;9.00;99.90;;;;;;5023170;28;20029;-87
2021/03/12 12:23:11;;;;;;;9.95;0.80;;;9.10;99.90;;;;;;5030130;28;20151;-86
2021/03/12 12:25:37;;;;;;;11.02;0.65;;;9.30;99.90;;;;;;5028648;28;20472;-87
2021/03/12 12:28:06;;;;;;;9.95;0.90;;;9.30;99.90;;;;;;5028147;28;20033;-85
2021/03/12 12:30:32;;;;;;;13.30;0.90;;;9.20;99.90;;;;;;5029697;28;20122;-87
2021/03/12 12:32:59;;;;;;;11.88;0.80;;;9.10;99.90;;;;;;5014630;28;20105;-85
2021/03/12 12:35:26;;;;;;;7.07;0.57;;;9.10;99.90;;;;;;5029625;28;20476;-85
2021/03/12 12:37:52;;;;;;;7.43;0.63;;;9.30;99.90;;;;;;5005235;28;20138;-85
2021/03/12 12:40:20;;;;;;;10.13;0.60;;;9.40;99.90;;;;;;5029093;28;20036;-85
2021/03/12 12:42:49;;;;;;;8.00;0.47;;;9.30;99.90;;;;;;5028891;28;20037;-85
2021/03/12 12:45:16;;;;;;;7.72;0.70;;;9.20;99.90;;;;;;5029244;28;20021;-86
2021/03/12 12:47:43;;;;;;;7.65;0.50;;;9.10;99.90;;;;;;5035223;28;20033;-86
2021/03/12 12:50:10;;;;;;;6.45;1.02;;;9.30;99.90;;;;;;5040966;28;20048;-86
2021/03/12 12:52:36;;;;;;;11.02;0.60;;;9.10;99.90;;;;;;5034017;28;20133;-86
2021/03/12 12:55:03;;;;;;;4.75;0.43;;;9.00;99.90;;;;;;5022065;28;20155;-87
2021/03/12 12:57:29;;;;;;;6.38;0.38;;;8.80;99.90;;;;;;5041961;28;20029;-87
2021/03/12 12:59:55;;;;;;;7.07;0.68;;;8.80;99.90;;;;;;5018963;28;20112;-86
2021/03/12 13:02:20;;;;;;;9.32;0.50;;;8.80;99.90;;;;;;5018769;28;20095;-86
2021/03/12 13:04:46;;;;;;;8.68;0.75;;;8.80;99.90;;;;;;5026182;28;20033;-85
2021/03/12 13:07:12;;;;;;;9.43;0.50;;;8.60;99.90;;;;;;5019954;23;20757;-86
2021/03/12 13:09:37;;;;;;;7.43;0.50;;;8.60;99.90;;;;;;5020085;28;20025;-85
2021/03/12 13:12:09;;;;;;;4.53;0.40;;;8.70;99.90;;;;;;5009099;28;20552;-87
2021/03/12 13:14:35;;;;;;;9.68;0.47;;;8.80;99.90;;;;;;5014920;28;20064;-87
2021/03/12 13:17:01;;;;;;;6.40;0.40;;;9.10;99.90;;;;;;5008731;28;20030;-86
2021/03/12 13:19:26;;;;;;;7.82;0.75;;;9.10;99.90;;;;;;5035253;28;20038;-87
2021/03/12 13:21:53;;;;;;;5.30;0.40;;;9.10;99.90;;;;;;5035497;28;20029;-87
2021/03/12 13:24:22;;;;;;;6.68;0.50;;;9.10;99.90;;;;;;5016050;28;20069;-85
2021/03/12 13:26:47;;;;;;;9.63;0.40;;;9.00;99.90;;;;;;5011565;28;20051;-86